sensor_id;sensor_type;location;lat;lon;timestamp;pressure;altitude;pressure_sealevel;temperature;humidity
10060;BME280;5069;49.306;8.636;2023-05-12T00:01:04;100262.28;;;13.57;100.00
10060;BME280;5069;49.306;8.636;2023-05-12T00:04:05;100257.50;;;13.47;100.00
10060;BME280;5069;49.306;8.636;2023-05-12T00:07:07;100254.16;;;13.43;100.00
10060;BME280;5069;49.306;8.636;2023-05-12T00:10:09;100251.63;;;13.40;100.00
10060;BME280;5069;49.306;8.636;2023-05-12T00:13:11;100255.06;;;13.42;100.00
10060;BME280;5069;49.306;8.636;2023-05-12T00:16:12;100252.56;;;13.39;100.00
10060;BME280;5069;49.306;8.636;2023-05-12T00:19:19;100251.63;;;13.40;100.00
10060;BME280;5069;49.306;8.636;2023-05-12T00:22:21;100248.00;;;13.43;100.00
10060;BME280;5069;49.306;8.636;2023-05-12T00:25:22;100245.34;;;13.43;100.00
10060;BME280;5069;49.306;8.636;2023-05-12T00:28:24;100245.69;;;13.35;100.00
10060;BME280;5069;49.306;8.636;2023-05-12T00:31:25;100245.06;;;13.30;100.00
10060;BME280;5069;49.306;8.636;2023-05-12T00:34:27;100247.06;;;13.25;100.00
10060;BME280;5069;49.306;8.636;2023-05-12T00:37:28;100248.06;;;13.22;100.00
10060;BME280;5069;49.306;8.636;2023-05-12T00:40:30;100245.63;;;13.18;100.00
10060;BME280;5069;49.306;8.636;2023-05-12T00:43:32;100239.69;;;13.13;100.00
10060;BME280;5069;49.306;8.636;2023-05-12T00:46:33;100238.00;;;13.10;100.00
10060;BME280;5069;49.306;8.636;2023-05-12T00:49:35;100237.22;;;13.08;100.00
10060;BME280;5069;49.306;8.636;2023-05-12T00:52:37;100234.81;;;13.04;100.00
10060;BME280;5069;49.306;8.636;2023-05-12T00:55:38;100230.34;;;13.04;100.00
10060;BME280;5069;49.306;8.636;2023-05-12T00:58:40;100226.06;;;13.02;100.00
10060;BME280;5069;49.306;8.636;2023-05-12T01:01:41;100227.00;;;13.01;100.00
10060;BME280;5069;49.306;8.636;2023-05-12T01:04:44;100230.44;;;13.03;100.00
10060;BME280;5069;49.306;8.636;2023-05-12T01:07:47;100225.00;;;13.06;100.00
10060;BME280;5069;49.306;8.636;2023-05-12T01:10:48;100225.91;;;13.05;100.00
10060;BME280;5069;49.306;8.636;2023-05-12T01:13:51;100220.72;;;13.03;100.00
10060;BME280;5069;49.306;8.636;2023-05-12T01:16:57;100217.22;;;13.03;100.00
10060;BME280;5069;49.306;8.636;2023-05-12T01:20:03;100220.78;;;13.02;100.00
10060;BME280;5069;49.306;8.636;2023-05-12T01:23:06;100222.78;;;12.97;100.00
10060;BME280;5069;49.306;8.636;2023-05-12T01:26:08;100221.50;;;12.87;100.00
10060;BME280;5069;49.306;8.636;2023-05-12T01:29:11;100221.03;;;12.77;100.00
10060;BME280;5069;49.306;8.636;2023-05-12T01:32:14;100218.59;;;12.72;100.00
10060;BME280;5069;49.306;8.636;2023-05-12T01:35:15;100222.44;;;12.65;100.00
10060;BME280;5069;49.306;8.636;2023-05-12T01:38:23;100218.75;;;12.69;100.00
10060;BME280;5069;49.306;8.636;2023-05-12T01:41:25;100226.47;;;12.74;100.00
10060;BME280;5069;49.306;8.636;2023-05-12T01:44:27;100223.88;;;12.72;100.00
10060;BME280;5069;49.306;8.636;2023-05-12T01:47:28;100227.91;;;12.81;100.00
10060;BME280;5069;49.306;8.636;2023-05-12T01:50:41;100230.19;;;12.89;100.00
10060;BME280;5069;49.306;8.636;2023-05-12T01:53:46;100229.50;;;13.04;100.00
10060;BME280;5069;49.306;8.636;2023-05-12T01:56:48;100226.19;;;12.99;100.00
10060;BME280;5069;49.306;8.636;2023-05-12T01:59:49;100233.09;;;13.03;100.00
10060;BME280;5069;49.306;8.636;2023-05-12T02:02:51;100230.91;;;13.11;100.00
10060;BME280;5069;49.306;8.636;2023-05-12T02:05:53;100225.00;;;13.06;100.00
10060;BME280;5069;49.306;8.636;2023-05-12T02:08:55;100225.63;;;13.11;100.00
10060;BME280;5069;49.306;8.636;2023-05-12T02:11:56;100229.81;;;13.16;100.00
10060;BME280;5069;49.306;8.636;2023-05-12T02:14:58;100230.38;;;13.23;100.00
10060;BME280;5069;49.306;8.636;2023-05-12T02:18:00;100229.91;;;13.15;100.00
10060;BME280;5069;49.306;8.636;2023-05-12T02:21:01;100228.38;;;13.09;100.00
10060;BME280;5069;49.306;8.636;2023-05-12T02:24:03;100229.34;;;13.07;100.00
10060;BME280;5069;49.306;8.636;2023-05-12T02:27:05;100221.47;;;13.05;100.00
10060;BME280;5069;49.306;8.636;2023-05-12T02:30:07;100227.50;;;13.09;100.00
10060;BME280;5069;49.306;8.636;2023-05-12T02:33:08;100228.81;;;13.19;100.00
10060;BME280;5069;49.306;8.636;2023-05-12T02:36:10;100222.72;;;13.17;100.00
10060;BME280;5069;49.306;8.636;2023-05-12T02:39:11;100222.44;;;13.23;100.00
10060;BME280;5069;49.306;8.636;2023-05-12T02:42:14;100224.81;;;13.29;100.00
10060;BME280;5069;49.306;8.636;2023-05-12T02:45:15;100227.44;;;13.29;100.00
10060;BME280;5069;49.306;8.636;2023-05-12T02:48:17;100221.16;;;13.32;100.00
10060;BME280;5069;49.306;8.636;2023-05-12T02:51:18;100215.72;;;13.35;100.00
10060;BME280;5069;49.306;8.636;2023-05-12T02:54:20;100224.50;;;13.35;100.00
10060;BME280;5069;49.306;8.636;2023-05-12T02:57:21;100220.94;;;13.36;100.00
10060;BME280;5069;49.306;8.636;2023-05-12T03:00:23;100224.22;;;13.41;100.00
10060;BME280;5069;49.306;8.636;2023-05-12T03:03:24;100225.94;;;13.42;100.00
10060;BME280;5069;49.306;8.636;2023-05-12T03:06:26;100224.16;;;13.43;100.00
10060;BME280;5069;49.306;8.636;2023-05-12T03:09:27;100213.63;;;13.41;100.00
10060;BME280;5069;49.306;8.636;2023-05-12T03:12:29;100211.34;;;13.34;100.00
10060;BME280;5069;49.306;8.636;2023-05-12T03:15:31;100207.59;;;13.20;100.00
10060;BME280;5069;49.306;8.636;2023-05-12T03:18:33;100215.13;;;13.09;100.00
10060;BME280;5069;49.306;8.636;2023-05-12T03:21:34;100214.09;;;13.13;100.00
10060;BME280;5069;49.306;8.636;2023-05-12T03:24:37;100219.63;;;13.07;100.00
10060;BME280;5069;49.306;8.636;2023-05-12T03:27:38;100222.22;;;13.09;100.00
10060;BME280;5069;49.306;8.636;2023-05-12T03:30:40;100221.19;;;13.11;100.00
10060;BME280;5069;49.306;8.636;2023-05-12T03:33:42;100222.13;;;13.10;100.00
10060;BME280;5069;49.306;8.636;2023-05-12T03:36:43;100214.41;;;13.06;100.00
10060;BME280;5069;49.306;8.636;2023-05-12T03:39:45;100222.41;;;13.04;100.00
10060;BME280;5069;49.306;8.636;2023-05-12T03:42:47;100219.84;;;13.03;100.00
10060;BME280;5069;49.306;8.636;2023-05-12T03:45:51;100216.19;;;13.05;100.00
10060;BME280;5069;49.306;8.636;2023-05-12T03:48:52;100221.41;;;13.07;100.00
10060;BME280;5069;49.306;8.636;2023-05-12T03:51:54;100221.19;;;13.11;100.00
10060;BME280;5069;49.306;8.636;2023-05-12T03:54:55;100228.56;;;13.05;100.00
10060;BME280;5069;49.306;8.636;2023-05-12T03:57:57;100223.19;;;13.06;100.00
10060;BME280;5069;49.306;8.636;2023-05-12T04:00:59;100220.34;;;13.11;100.00
10060;BME280;5069;49.306;8.636;2023-05-12T04:04:01;100221.16;;;13.13;100.00
10060;BME280;5069;49.306;8.636;2023-05-12T04:07:03;100226.59;;;13.10;100.00
10060;BME280;5069;49.306;8.636;2023-05-12T04:10:05;100212.78;;;13.03;100.00
10060;BME280;5069;49.306;8.636;2023-05-12T04:13:07;100220.50;;;13.08;100.00
10060;BME280;5069;49.306;8.636;2023-05-12T04:16:09;100224.69;;;13.13;100.00
10060;BME280;5069;49.306;8.636;2023-05-12T04:19:10;100224.38;;;13.19;100.00
10060;BME280;5069;49.306;8.636;2023-05-12T04:22:12;100223.25;;;13.25;100.00
10060;BME280;5069;49.306;8.636;2023-05-12T04:25:14;100229.41;;;13.26;100.00
10060;BME280;5069;49.306;8.636;2023-05-12T04:28:15;100226.53;;;13.30;100.00
10060;BME280;5069;49.306;8.636;2023-05-12T04:31:17;100230.44;;;13.40;100.00
10060;BME280;5069;49.306;8.636;2023-05-12T04:34:19;100240.28;;;13.38;100.00
10060;BME280;5069;49.306;8.636;2023-05-12T04:37:21;100232.22;;;13.40;100.00
10060;BME280;5069;49.306;8.636;2023-05-12T04:40:23;100227.88;;;13.39;100.00
10060;BME280;5069;49.306;8.636;2023-05-12T04:43:26;100228.94;;;13.35;100.00
10060;BME280;5069;49.306;8.636;2023-05-12T04:46:30;100226.47;;;13.32;100.00
10060;BME280;5069;49.306;8.636;2023-05-12T04:49:33;100239.59;;;13.33;100.00
10060;BME280;5069;49.306;8.636;2023-05-12T04:52:35;100242.97;;;13.37;100.00
10060;BME280;5069;49.306;8.636;2023-05-12T04:55:37;100244.72;;;13.38;100.00
10060;BME280;5069;49.306;8.636;2023-05-12T04:58:38;100243.69;;;13.40;100.00
10060;BME280;5069;49.306;8.636;2023-05-12T05:01:41;100239.94;;;13.44;100.00
10060;BME280;5069;49.306;8.636;2023-05-12T05:04:43;100252.13;;;13.48;100.00
10060;BME280;5069;49.306;8.636;2023-05-12T05:07:45;100248.41;;;13.52;100.00
10060;BME280;5069;49.306;8.636;2023-05-12T05:10:46;100248.56;;;13.49;100.00
10060;BME280;5069;49.306;8.636;2023-05-12T05:13:48;100246.84;;;13.48;100.00
10060;BME280;5069;49.306;8.636;2023-05-12T05:16:51;100251.34;;;13.46;100.00
10060;BME280;5069;49.306;8.636;2023-05-12T05:19:52;100251.16;;;13.32;100.00
10060;BME280;5069;49.306;8.636;2023-05-12T05:23:02;100243.97;;;13.34;100.00
10060;BME280;5069;49.306;8.636;2023-05-12T05:26:04;100248.00;;;13.43;100.00
10060;BME280;5069;49.306;8.636;2023-05-12T05:29:05;100252.84;;;13.52;100.00
10060;BME280;5069;49.306;8.636;2023-05-12T05:32:08;100254.28;;;13.59;100.00
10060;BME280;5069;49.306;8.636;2023-05-12T05:35:10;100267.28;;;13.63;100.00
10060;BME280;5069;49.306;8.636;2023-05-12T05:38:16;100264.00;;;13.58;100.00
10060;BME280;5069;49.306;8.636;2023-05-12T05:41:18;100256.97;;;13.57;100.00
10060;BME280;5069;49.306;8.636;2023-05-12T05:44:19;100268.38;;;13.59;100.00
10060;BME280;5069;49.306;8.636;2023-05-12T05:47:21;100278.03;;;13.60;100.00
10060;BME280;5069;49.306;8.636;2023-05-12T05:50:24;100274.94;;;13.51;100.00
10060;BME280;5069;49.306;8.636;2023-05-12T05:53:25;100271.59;;;13.47;100.00
10060;BME280;5069;49.306;8.636;2023-05-12T05:56:28;100272.41;;;13.49;100.00
10060;BME280;5069;49.306;8.636;2023-05-12T05:59:30;100270.66;;;13.48;100.00
10060;BME280;5069;49.306;8.636;2023-05-12T06:02:32;100279.66;;;13.44;100.00
10060;BME280;5069;49.306;8.636;2023-05-12T06:05:34;100273.59;;;13.42;100.00
10060;BME280;5069;49.306;8.636;2023-05-12T06:08:36;100274.19;;;13.49;100.00
10060;BME280;5069;49.306;8.636;2023-05-12T06:11:39;100284.50;;;13.55;100.00
10060;BME280;5069;49.306;8.636;2023-05-12T06:14:40;100280.88;;;13.56;100.00
10060;BME280;5069;49.306;8.636;2023-05-12T06:17:42;100289.34;;;13.64;100.00
10060;BME280;5069;49.306;8.636;2023-05-12T06:20:43;100288.00;;;13.73;100.00
10060;BME280;5069;49.306;8.636;2023-05-12T06:23:45;100289.75;;;13.74;100.00
10060;BME280;5069;49.306;8.636;2023-05-12T06:26:46;100287.09;;;13.74;100.00
10060;BME280;5069;49.306;8.636;2023-05-12T06:29:48;100291.06;;;13.65;100.00
10060;BME280;5069;49.306;8.636;2023-05-12T06:32:49;100293.78;;;13.63;100.00
10060;BME280;5069;49.306;8.636;2023-05-12T06:35:50;100297.13;;;13.67;100.00
10060;BME280;5069;49.306;8.636;2023-05-12T06:38:52;100298.31;;;13.79;100.00
10060;BME280;5069;49.306;8.636;2023-05-12T06:41:54;100297.09;;;13.86;100.00
10060;BME280;5069;49.306;8.636;2023-05-12T06:44:55;100299.06;;;13.82;100.00
10060;BME280;5069;49.306;8.636;2023-05-12T06:47:56;100301.63;;;13.84;100.00
10060;BME280;5069;49.306;8.636;2023-05-12T06:51:01;100306.00;;;14.02;100.00
10060;BME280;5069;49.306;8.636;2023-05-12T06:54:02;100298.00;;;14.03;100.00
10060;BME280;5069;49.306;8.636;2023-05-12T06:57:04;100308.59;;;14.03;100.00
10060;BME280;5069;49.306;8.636;2023-05-12T07:00:06;100311.00;;;14.08;100.00
10060;BME280;5069;49.306;8.636;2023-05-12T07:03:08;100309.63;;;14.01;100.00
10060;BME280;5069;49.306;8.636;2023-05-12T07:06:10;100303.97;;;13.90;100.00
10060;BME280;5069;49.306;8.636;2023-05-12T07:09:12;100308.84;;;13.80;100.00
10060;BME280;5069;49.306;8.636;2023-05-12T07:12:14;100308.63;;;13.85;100.00
10060;BME280;5069;49.306;8.636;2023-05-12T07:15:15;100308.34;;;13.91;100.00
10060;BME280;5069;49.306;8.636;2023-05-12T07:18:17;100311.09;;;13.89;100.00
10060;BME280;5069;49.306;8.636;2023-05-12T07:21:18;100315.22;;;13.95;100.00
10060;BME280;5069;49.306;8.636;2023-05-12T07:24:20;100312.06;;;13.87;100.00
10060;BME280;5069;49.306;8.636;2023-05-12T07:27:21;100310.50;;;13.83;100.00
10060;BME280;5069;49.306;8.636;2023-05-12T07:30:23;100311.50;;;13.80;100.00
10060;BME280;5069;49.306;8.636;2023-05-12T07:33:24;100315.41;;;13.90;100.00
10060;BME280;5069;49.306;8.636;2023-05-12T07:36:26;100319.97;;;13.88;100.00
10060;BME280;5069;49.306;8.636;2023-05-12T07:39:28;100314.16;;;13.80;100.00
10060;BME280;5069;49.306;8.636;2023-05-12T07:42:32;100313.78;;;13.88;100.00
10060;BME280;5069;49.306;8.636;2023-05-12T07:45:34;100307.75;;;13.84;100.00
10060;BME280;5069;49.306;8.636;2023-05-12T07:48:36;100306.94;;;13.84;100.00
10060;BME280;5069;49.306;8.636;2023-05-12T07:51:40;100310.50;;;13.83;100.00
10060;BME280;5069;49.306;8.636;2023-05-12T07:54:41;100308.44;;;13.89;100.00
10060;BME280;5069;49.306;8.636;2023-05-12T07:57:43;100306.53;;;13.91;100.00
10060;BME280;5069;49.306;8.636;2023-05-12T08:00:44;100314.94;;;14.01;100.00
10060;BME280;5069;49.306;8.636;2023-05-12T08:03:46;100306.50;;;14.10;100.00
10060;BME280;5069;49.306;8.636;2023-05-12T08:06:47;100310.03;;;14.11;100.00
10060;BME280;5069;49.306;8.636;2023-05-12T08:09:49;100314.75;;;14.04;100.00
10060;BME280;5069;49.306;8.636;2023-05-12T08:12:50;100318.50;;;14.00;100.00
10060;BME280;5069;49.306;8.636;2023-05-12T08:15:52;100320.34;;;13.98;100.00
10060;BME280;5069;49.306;8.636;2023-05-12T08:18:53;100318.59;;;13.80;100.00
10060;BME280;5069;49.306;8.636;2023-05-12T08:21:55;100315.81;;;13.83;100.00
10060;BME280;5069;49.306;8.636;2023-05-12T08:24:56;100316.03;;;13.78;100.00
10060;BME280;5069;49.306;8.636;2023-05-12T08:27:58;100309.53;;;14.02;100.00
10060;BME280;5069;49.306;8.636;2023-05-12T08:31:01;100313.06;;;14.20;100.00
10060;BME280;5069;49.306;8.636;2023-05-12T08:34:05;100304.81;;;14.26;100.00
10060;BME280;5069;49.306;8.636;2023-05-12T08:37:11;100308.66;;;14.55;100.00
10060;BME280;5069;49.306;8.636;2023-05-12T08:40:23;100305.41;;;14.67;100.00
10060;BME280;5069;49.306;8.636;2023-05-12T08:43:25;100314.50;;;14.79;100.00
10060;BME280;5069;49.306;8.636;2023-05-12T08:46:31;100309.78;;;15.01;100.00
10060;BME280;5069;49.306;8.636;2023-05-12T08:49:34;100306.91;;;15.21;100.00
10060;BME280;5069;49.306;8.636;2023-05-12T08:52:36;100314.91;;;15.04;100.00
10060;BME280;5069;49.306;8.636;2023-05-12T08:55:40;100310.91;;;14.97;100.00
10060;BME280;5069;49.306;8.636;2023-05-12T08:58:54;100309.81;;;14.84;100.00
10060;BME280;5069;49.306;8.636;2023-05-12T09:01:57;100321.84;;;14.74;100.00
10060;BME280;5069;49.306;8.636;2023-05-12T09:04:59;100315.47;;;14.61;100.00
10060;BME280;5069;49.306;8.636;2023-05-12T09:08:01;100314.66;;;14.59;100.00
10060;BME280;5069;49.306;8.636;2023-05-12T09:11:03;100309.84;;;14.67;100.00
10060;BME280;5069;49.306;8.636;2023-05-12T09:14:09;100315.28;;;14.64;100.00
10060;BME280;5069;49.306;8.636;2023-05-12T09:17:13;100315.63;;;14.58;100.00
10060;BME280;5069;49.306;8.636;2023-05-12T09:20:16;100320.94;;;14.58;100.00
10060;BME280;5069;49.306;8.636;2023-05-12T09:23:31;100319.03;;;14.60;100.00
10060;BME280;5069;49.306;8.636;2023-05-12T09:26:47;100322.53;;;14.77;100.00
10060;BME280;5069;49.306;8.636;2023-05-12T09:29:49;100321.06;;;14.89;100.00
10060;BME280;5069;49.306;8.636;2023-05-12T09:33:10;100316.31;;;15.11;100.00
10060;BME280;5069;49.306;8.636;2023-05-12T09:36:19;100314.47;;;15.29;100.00
10060;BME280;5069;49.306;8.636;2023-05-12T09:39:21;100310.97;;;15.28;100.00
10060;BME280;5069;49.306;8.636;2023-05-12T09:42:27;100312.50;;;15.32;100.00
10060;BME280;5069;49.306;8.636;2023-05-12T09:45:35;100318.06;;;15.28;100.00
10060;BME280;5069;49.306;8.636;2023-05-12T09:48:37;100319.25;;;15.22;100.00
10060;BME280;5069;49.306;8.636;2023-05-12T09:51:39;100315.59;;;15.25;100.00
10060;BME280;5069;49.306;8.636;2023-05-12T09:54:41;100325.97;;;15.29;100.00
10060;BME280;5069;49.306;8.636;2023-05-12T09:57:44;100317.38;;;15.24;100.00
10060;BME280;5069;49.306;8.636;2023-05-12T10:00:46;100321.50;;;15.30;100.00
10060;BME280;5069;49.306;8.636;2023-05-12T10:03:52;100315.06;;;15.34;100.00
10060;BME280;5069;49.306;8.636;2023-05-12T10:06:56;100317.25;;;15.43;100.00
10060;BME280;5069;49.306;8.636;2023-05-12T10:10:00;100323.06;;;15.50;100.00
10060;BME280;5069;49.306;8.636;2023-05-12T10:13:02;100327.31;;;15.54;100.00
10060;BME280;5069;49.306;8.636;2023-05-12T10:16:05;100328.78;;;15.59;100.00
10060;BME280;5069;49.306;8.636;2023-05-12T10:19:07;100325.00;;;15.63;100.00
10060;BME280;5069;49.306;8.636;2023-05-12T10:22:11;100316.78;;;15.68;100.00
10060;BME280;5069;49.306;8.636;2023-05-12T10:25:16;100314.72;;;15.73;100.00
10060;BME280;5069;49.306;8.636;2023-05-12T10:28:18;100318.47;;;15.85;100.00
10060;BME280;5069;49.306;8.636;2023-05-12T10:31:21;100327.72;;;16.09;100.00
10060;BME280;5069;49.306;8.636;2023-05-12T10:34:29;100317.41;;;16.19;100.00
10060;BME280;5069;49.306;8.636;2023-05-12T10:37:30;100313.81;;;16.20;100.00
10060;BME280;5069;49.306;8.636;2023-05-12T10:40:32;100317.06;;;16.25;100.00
10060;BME280;5069;49.306;8.636;2023-05-12T10:43:38;100316.56;;;16.48;100.00
10060;BME280;5069;49.306;8.636;2023-05-12T10:46:40;100310.59;;;16.59;100.00
10060;BME280;5069;49.306;8.636;2023-05-12T10:49:42;100306.88;;;16.47;100.00
10060;BME280;5069;49.306;8.636;2023-05-12T10:53:02;100309.28;;;16.51;100.00
10060;BME280;5069;49.306;8.636;2023-05-12T10:56:04;100308.66;;;16.46;100.00
10060;BME280;5069;49.306;8.636;2023-05-12T11:02:15;100305.31;;;16.29;100.00
10060;BME280;5069;49.306;8.636;2023-05-12T11:05:18;100303.41;;;16.31;100.00
10060;BME280;5069;49.306;8.636;2023-05-12T11:08:21;100307.34;;;16.24;100.00
10060;BME280;5069;49.306;8.636;2023-05-12T11:11:23;100310.84;;;16.10;100.00
10060;BME280;5069;49.306;8.636;2023-05-12T11:14:26;100306.78;;;16.19;100.00
10060;BME280;5069;49.306;8.636;2023-05-12T11:17:28;100311.75;;;16.25;100.00
10060;BME280;5069;49.306;8.636;2023-05-12T11:20:29;100305.75;;;16.21;100.00
10060;BME280;5069;49.306;8.636;2023-05-12T11:23:31;100308.69;;;16.17;100.00
10060;BME280;5069;49.306;8.636;2023-05-12T11:26:33;100301.44;;;16.19;100.00
10060;BME280;5069;49.306;8.636;2023-05-12T11:29:34;100314.41;;;16.25;100.00
10060;BME280;5069;49.306;8.636;2023-05-12T11:32:36;100308.63;;;16.32;100.00
10060;BME280;5069;49.306;8.636;2023-05-12T11:35:38;100310.44;;;16.32;100.00
10060;BME280;5069;49.306;8.636;2023-05-12T11:38:47;100316.03;;;16.27;99.86
10060;BME280;5069;49.306;8.636;2023-05-12T11:41:49;100315.19;;;16.27;100.00
10060;BME280;5069;49.306;8.636;2023-05-12T11:45:02;100317.41;;;16.19;100.00
10060;BME280;5069;49.306;8.636;2023-05-12T11:48:06;100313.22;;;16.15;100.00
10060;BME280;5069;49.306;8.636;2023-05-12T11:51:08;100320.78;;;16.06;100.00
10060;BME280;5069;49.306;8.636;2023-05-12T11:54:09;100326.28;;;16.03;100.00
10060;BME280;5069;49.306;8.636;2023-05-12T11:57:11;100328.16;;;16.01;100.00
10060;BME280;5069;49.306;8.636;2023-05-12T12:00:13;100328.75;;;16.06;100.00
10060;BME280;5069;49.306;8.636;2023-05-12T12:03:14;100335.28;;;16.17;100.00
10060;BME280;5069;49.306;8.636;2023-05-12T12:06:18;100334.78;;;16.10;100.00
10060;BME280;5069;49.306;8.636;2023-05-12T12:09:29;100336.84;;;16.05;100.00
10060;BME280;5069;49.306;8.636;2023-05-12T12:12:30;100336.66;;;15.92;100.00
10060;BME280;5069;49.306;8.636;2023-05-12T12:15:32;100339.22;;;15.78;100.00
10060;BME280;5069;49.306;8.636;2023-05-12T12:18:33;100337.94;;;15.85;100.00
10060;BME280;5069;49.306;8.636;2023-05-12T12:21:34;100341.13;;;15.76;100.00
10060;BME280;5069;49.306;8.636;2023-05-12T12:24:36;100353.97;;;15.68;100.00
10060;BME280;5069;49.306;8.636;2023-05-12T12:27:38;100339.56;;;15.72;100.00
10060;BME280;5069;49.306;8.636;2023-05-12T12:30:39;100345.06;;;15.69;100.00
10060;BME280;5069;49.306;8.636;2023-05-12T12:33:41;100343.69;;;15.62;100.00
10060;BME280;5069;49.306;8.636;2023-05-12T12:36:42;100347.97;;;15.64;100.00
10060;BME280;5069;49.306;8.636;2023-05-12T12:39:44;100340.94;;;15.79;100.00
10060;BME280;5069;49.306;8.636;2023-05-12T12:42:45;100352.84;;;15.72;100.00
10060;BME280;5069;49.306;8.636;2023-05-12T12:45:47;100344.53;;;15.62;100.00
10060;BME280;5069;49.306;8.636;2023-05-12T12:48:49;100352.69;;;15.59;100.00
10060;BME280;5069;49.306;8.636;2023-05-12T12:51:50;100356.84;;;15.48;100.00
10060;BME280;5069;49.306;8.636;2023-05-12T12:54:52;100353.25;;;15.49;100.00
10060;BME280;5069;49.306;8.636;2023-05-12T12:57:53;100357.97;;;15.26;100.00
10060;BME280;5069;49.306;8.636;2023-05-12T13:00:55;100363.47;;;15.23;100.00
10060;BME280;5069;49.306;8.636;2023-05-12T13:03:57;100360.63;;;15.26;100.00
10060;BME280;5069;49.306;8.636;2023-05-12T13:07:00;100361.28;;;15.32;100.00
10060;BME280;5069;49.306;8.636;2023-05-12T13:10:02;100359.63;;;15.29;100.00
10060;BME280;5069;49.306;8.636;2023-05-12T13:13:04;100361.59;;;15.25;100.00
10060;BME280;5069;49.306;8.636;2023-05-12T13:16:06;100363.13;;;15.29;100.00
10060;BME280;5069;49.306;8.636;2023-05-12T13:19:08;100362.81;;;15.36;100.00
10060;BME280;5069;49.306;8.636;2023-05-12T13:22:10;100371.84;;;15.49;100.00
10060;BME280;5069;49.306;8.636;2023-05-12T13:25:11;100366.66;;;15.63;100.00
10060;BME280;5069;49.306;8.636;2023-05-12T13:28:13;100367.84;;;15.73;100.00
10060;BME280;5069;49.306;8.636;2023-05-12T13:31:14;100351.09;;;15.88;100.00
10060;BME280;5069;49.306;8.636;2023-05-12T13:34:16;100358.50;;;16.13;100.00
10060;BME280;5069;49.306;8.636;2023-05-12T13:37:17;100357.41;;;16.47;100.00
10060;BME280;5069;49.306;8.636;2023-05-12T13:40:18;100359.25;;;16.62;100.00
10060;BME280;5069;49.306;8.636;2023-05-12T13:43:20;100360.25;;;16.89;100.00
10060;BME280;5069;49.306;8.636;2023-05-12T13:46:21;100355.91;;;17.03;100.00
10060;BME280;5069;49.306;8.636;2023-05-12T13:49:23;100362.38;;;17.27;100.00
10060;BME280;5069;49.306;8.636;2023-05-12T13:52:24;100360.97;;;17.35;100.00
10060;BME280;5069;49.306;8.636;2023-05-12T13:55:26;100352.94;;;17.21;100.00
10060;BME280;5069;49.306;8.636;2023-05-12T13:58:28;100365.41;;;17.07;100.00
10060;BME280;5069;49.306;8.636;2023-05-12T14:01:30;100368.53;;;16.99;99.52
10060;BME280;5069;49.306;8.636;2023-05-12T14:04:31;100368.16;;;17.05;99.54
10060;BME280;5069;49.306;8.636;2023-05-12T14:07:33;100368.44;;;17.15;98.71
10060;BME280;5069;49.306;8.636;2023-05-12T14:10:34;100370.75;;;17.21;98.46
10060;BME280;5069;49.306;8.636;2023-05-12T14:13:36;100372.25;;;17.11;98.70
10060;BME280;5069;49.306;8.636;2023-05-12T14:16:37;100373.59;;;17.18;95.93
10060;BME280;5069;49.306;8.636;2023-05-12T14:19:39;100363.72;;;17.20;96.09
10060;BME280;5069;49.306;8.636;2023-05-12T14:22:41;100365.97;;;17.26;96.23
10060;BME280;5069;49.306;8.636;2023-05-12T14:25:42;100369.63;;;17.25;96.17
10060;BME280;5069;49.306;8.636;2023-05-12T14:28:44;100377.50;;;17.26;91.60
10060;BME280;5069;49.306;8.636;2023-05-12T14:31:46;100372.88;;;17.30;94.81
10060;BME280;5069;49.306;8.636;2023-05-12T14:34:47;100380.34;;;17.38;96.17
10060;BME280;5069;49.306;8.636;2023-05-12T14:37:49;100379.91;;;17.31;94.77
10060;BME280;5069;49.306;8.636;2023-05-12T14:40:50;100388.06;;;17.14;96.31
10060;BME280;5069;49.306;8.636;2023-05-12T14:43:53;100382.69;;;16.85;94.06
10060;BME280;5069;49.306;8.636;2023-05-12T14:46:54;100380.56;;;16.76;97.92
10060;BME280;5069;49.306;8.636;2023-05-12T14:49:57;100381.63;;;16.88;99.00
10060;BME280;5069;49.306;8.636;2023-05-12T14:52:59;100377.28;;;17.01;96.28
10060;BME280;5069;49.306;8.636;2023-05-12T14:56:01;100380.81;;;17.02;94.72
10060;BME280;5069;49.306;8.636;2023-05-12T14:59:04;100384.16;;;16.75;94.74
10060;BME280;5069;49.306;8.636;2023-05-12T15:02:07;100391.19;;;16.62;96.30
10060;BME280;5069;49.306;8.636;2023-05-12T15:05:11;100389.25;;;16.64;96.50
10060;BME280;5069;49.306;8.636;2023-05-12T15:08:17;100391.28;;;16.75;95.31
10060;BME280;5069;49.306;8.636;2023-05-12T15:11:19;100391.97;;;16.78;95.86
10060;BME280;5069;49.306;8.636;2023-05-12T15:14:20;100388.00;;;16.85;96.05
10060;BME280;5069;49.306;8.636;2023-05-12T15:17:21;100394.72;;;16.77;92.24
10060;BME280;5069;49.306;8.636;2023-05-12T15:20:23;100387.09;;;16.71;94.65
10060;BME280;5069;49.306;8.636;2023-05-12T15:23:26;100386.88;;;16.60;94.06
10060;BME280;5069;49.306;8.636;2023-05-12T15:26:27;100382.84;;;16.68;94.00
10060;BME280;5069;49.306;8.636;2023-05-12T15:29:38;100385.81;;;16.78;93.15
10060;BME280;5069;49.306;8.636;2023-05-12T15:32:40;100380.28;;;16.81;91.96
10060;BME280;5069;49.306;8.636;2023-05-12T15:35:41;100386.09;;;16.87;92.57
10060;BME280;5069;49.306;8.636;2023-05-12T15:38:43;100385.25;;;16.87;89.67
10060;BME280;5069;49.306;8.636;2023-05-12T15:41:47;100394.44;;;16.81;90.79
10060;BME280;5069;49.306;8.636;2023-05-12T15:44:50;100391.19;;;16.76;91.12
10060;BME280;5069;49.306;8.636;2023-05-12T15:47:52;100403.38;;;16.80;90.92
10060;BME280;5069;49.306;8.636;2023-05-12T15:50:54;100401.28;;;16.71;89.29
10060;BME280;5069;49.306;8.636;2023-05-12T15:53:56;100396.31;;;16.65;89.72
10060;BME280;5069;49.306;8.636;2023-05-12T15:56:57;100397.25;;;16.64;91.26